Ranger Creek, WA

4:04 PM PDT on April 21, 2018 (GMT -0700)
Deep Creek Cabin | | Change Station

Elev 2799 ft 47.01 °N, 121.52 °W | Updated 3 minutes ago

Overcast
Overcast
44.0 °F
Feels Like 44 °F
N
1.7
Wind Variable Wind from ENE
Gusts 2.7 mph

Today
High -- | Low -- °F
--% Chance of Precip.
Yesterday
High -- | Low -- °F
Precip. -- in
Pressure 30.31 in
Visibility 10.0 miles
Clouds Few 2300 ft
Scattered Clouds 2900 ft
Overcast 3900 ft
Windchill 44 °F
Dew Point 33 °F
Humidity 65%
Rainfall 0.04 in
Snow Depth Not available.
6:07 AM 8:03 PM
Waxing Crescent, 39% visible
SPECI KSMP 212230Z AUTO 23007KT 190V270 10SM FEW023 SCT029 OVC039 02/M02 A3031 RMK AO2 T00221022
Pressure 30.31 in
Visibility 10.0 miles
Clouds Few 2300 ft
Scattered Clouds 2900 ft
Overcast 3900 ft
Windchill 44 °F
Dew Point 33 °F
Humidity 65%
Rainfall 0.04 in
Snow Depth Not available.
6:07 AM 8:03 PM
Waxing Crescent, 39% visible
SPECI KSMP 212230Z AUTO 23007KT 190V270 10SM FEW023 SCT029 OVC039 02/M02 A3031 RMK AO2 T00221022

Get Severe Weather Alerts

Thanks for signing up!

Be on the lookout for a verification email in your inbox.

You'll start receiving the daily forecast at 6 AM.

×

10-Day Weather Forecast

Almanac

Astronomy

Apr. 21, 2018 Rise Set
Actual Time
Civil Twilight
Nautical Twilight
Astronomical Twilight
Moon
Length of Visible Light
Length of Day
Tomorrow will be .
, % of the Moon is Illuminated

Today's Extremes

State Highs State Lows

Community

WunderPhotos

Category 6

Welcome to Category 6. This is the collective home for Weather Underground's featured writeups by Dr. Jeff Masters (right), Bob Henson (left), Chris Burt, and other regular contributors.

Nearby

Air Quality

  Air Quality AQ Index Pollutant
Not available.

Snow Depth

Station Depth Elevation

Earthquake Activity

City Distance Mag. Time & Date
Minimum magnitude displayed is 2.5.

Coastal Water Temperatures

Place Temperature

Stations

Nearby Weather Stations

Station Location Temp. Windchill Dew Point Humidity Wind Precip. Elev Updated Type
                   

Watches & Warnings

There are currently no watches in effect.